Time;durP1;ratioP1;P1;durP2;ratioP2;P2;SDS_P1;SDS_P2;PMS_P1;PMS_P2;Temp;Humidity;BMP_temperature;BMP_pressure;BME280_temperature;BME280_humidity;BME280_pressure;Samples;Min_cycle;Max_cycle;Signal;HPM_P1;HPM_P2
2023/05/13 00:02:14;;;;;;;31.45;14.32;;;13.10;99.90;;;;;;5108683;28;20035;-60
2023/05/13 00:04:39;;;;;;;31.08;13.55;;;13.10;99.90;;;;;;5105710;28;20389;-61
2023/05/13 00:07:05;;;;;;;23.33;14.45;;;13.10;99.90;;;;;;5109752;28;20099;-60
2023/05/13 00:09:31;;;;;;;28.25;14.35;;;13.10;99.90;;;;;;5109870;28;20027;-62
2023/05/13 00:11:57;;;;;;;33.42;14.23;;;13.00;99.90;;;;;;5108997;28;20038;-60
2023/05/13 00:14:22;;;;;;;23.13;13.88;;;13.00;99.90;;;;;;5106786;28;20035;-61
2023/05/13 00:16:48;;;;;;;23.52;14.35;;;12.90;99.90;;;;;;5107658;28;20393;-61
2023/05/13 00:19:13;;;;;;;26.75;13.85;;;12.90;99.90;;;;;;5107308;28;20106;-61
2023/05/13 00:21:39;;;;;;;31.48;13.98;;;12.80;99.90;;;;;;5109423;28;20107;-61
2023/05/13 00:24:06;;;;;;;31.48;15.00;;;12.70;99.90;;;;;;5106489;28;20043;-62
2023/05/13 00:26:32;;;;;;;24.92;13.52;;;12.70;99.90;;;;;;5109253;28;20102;-62
2023/05/13 00:28:57;;;;;;;26.73;14.52;;;12.60;99.90;;;;;;5109179;28;20152;-61
2023/05/13 00:31:23;;;;;;;26.35;14.15;;;12.60;99.90;;;;;;5107814;28;20050;-62
2023/05/13 00:33:48;;;;;;;28.17;15.02;;;12.50;99.90;;;;;;5110180;28;20024;-62
2023/05/13 00:36:14;;;;;;;28.60;14.77;;;12.40;99.90;;;;;;5108737;28;20039;-61
2023/05/13 00:38:42;;;;;;;28.83;15.10;;;12.40;99.90;;;;;;5108102;28;20031;-62
2023/05/13 00:41:08;;;;;;;25.60;13.35;;;12.40;99.90;;;;;;5111421;28;20469;-62
2023/05/13 00:43:33;;;;;;;26.80;13.73;;;12.50;99.90;;;;;;5110339;28;20023;-62
2023/05/13 00:45:59;;;;;;;21.58;14.05;;;12.40;99.90;;;;;;5111566;28;20474;-61
2023/05/13 00:48:25;;;;;;;24.23;14.20;;;12.40;99.90;;;;;;5112071;28;20504;-62
2023/05/13 00:50:51;;;;;;;25.20;13.50;;;12.40;99.90;;;;;;5114456;27;20055;-62
2023/05/13 00:53:17;;;;;;;27.20;13.50;;;12.30;99.90;;;;;;5112456;28;20032;-59
2023/05/13 00:55:44;;;;;;;26.00;13.95;;;12.20;99.90;;;;;;5108003;28;20532;-61
2023/05/13 00:58:12;;;;;;;26.02;14.90;;;12.20;99.90;;;;;;5111045;28;20030;-61
2023/05/13 01:00:53;;;;;;;24.58;13.90;;;12.20;99.90;;;;;;5106844;28;20035;-61
2023/05/13 01:03:38;;;;;;;28.45;14.98;;;12.20;99.90;;;;;;5110473;28;20019;-61
2023/05/13 01:06:10;;;;;;;22.15;13.70;;;12.20;99.90;;;;;;5114459;28;20498;-58
2023/05/13 01:09:02;;;;;;;30.35;14.77;;;12.10;99.90;;;;;;5111666;28;20604;-62
2023/05/13 01:11:32;;;;;;;24.63;14.02;;;12.20;99.90;;;;;;5113113;28;20038;-62
2023/05/13 01:14:11;;;;;;;24.02;13.57;;;12.20;99.90;;;;;;5112077;28;20049;-61
2023/05/13 01:16:48;;;;;;;22.38;12.45;;;12.20;99.90;;;;;;5110508;28;20111;-60
2023/05/13 01:19:22;;;;;;;23.60;12.82;;;12.20;99.90;;;;;;5108857;28;20055;-62
2023/05/13 01:21:54;;;;;;;23.55;12.93;;;12.10;99.90;;;;;;5110598;28;20023;-61
2023/05/13 01:24:20;;;;;;;20.50;12.20;;;12.20;99.90;;;;;;5105974;28;20570;-61
2023/05/13 01:26:45;;;;;;;18.88;11.45;;;12.10;99.90;;;;;;5108005;28;20031;-62
2023/05/13 01:29:11;;;;;;;19.83;12.48;;;12.20;99.90;;;;;;5110493;28;20024;-62
2023/05/13 01:31:39;;;;;;;34.20;12.60;;;12.10;99.90;;;;;;5107737;28;20080;-61
2023/05/13 01:34:06;;;;;;;22.65;12.13;;;12.00;99.90;;;;;;5112095;28;20493;-62
2023/05/13 01:36:31;;;;;;;29.30;12.88;;;12.00;99.90;;;;;;5112192;28;20077;-62
2023/05/13 01:38:58;;;;;;;23.42;13.10;;;12.00;99.90;;;;;;5110450;28;20052;-62
2023/05/13 01:41:25;;;;;;;27.38;14.88;;;12.00;99.90;;;;;;5106844;28;20031;-62
2023/05/13 01:43:50;;;;;;;27.38;12.98;;;11.90;99.90;;;;;;5105794;28;20482;-57
2023/05/13 01:46:16;;;;;;;23.40;13.95;;;11.80;99.90;;;;;;5108162;28;20038;-61
2023/05/13 01:48:41;;;;;;;27.05;14.82;;;11.70;99.90;;;;;;5111618;28;20481;-60
2023/05/13 01:51:08;;;;;;;35.72;17.00;;;11.70;99.90;;;;;;5109172;28;20016;-61
2023/05/13 01:53:33;;;;;;;30.38;15.77;;;11.60;99.90;;;;;;5106924;28;20027;-59
2023/05/13 01:55:59;;;;;;;26.88;15.18;;;11.60;99.90;;;;;;5109167;28;20028;-62
2023/05/13 01:58:24;;;;;;;24.83;14.18;;;11.60;99.90;;;;;;5109616;28;20104;-62
2023/05/13 02:00:50;;;;;;;28.67;16.25;;;11.50;99.90;;;;;;5105923;28;20081;-62
2023/05/13 02:03:16;;;;;;;29.67;14.20;;;11.50;99.90;;;;;;5103950;28;20139;-61
2023/05/13 02:05:41;;;;;;;34.00;16.38;;;11.50;99.90;;;;;;5111785;28;20035;-62
2023/05/13 02:08:07;;;;;;;27.58;15.70;;;11.50;99.90;;;;;;5111790;28;20035;-62
2023/05/13 02:10:32;;;;;;;27.45;16.08;;;11.40;99.90;;;;;;5108782;28;20506;-61
2023/05/13 02:12:58;;;;;;;27.27;16.33;;;11.40;99.90;;;;;;5109714;28;20035;-61
2023/05/13 02:15:23;;;;;;;30.27;15.93;;;11.30;99.90;;;;;;5107070;28;20058;-61
2023/05/13 02:17:49;;;;;;;29.23;16.30;;;11.30;99.90;;;;;;5108104;27;20024;-62
2023/05/13 02:20:14;;;;;;;32.65;17.00;;;11.20;99.90;;;;;;5111928;28;20076;-61
2023/05/13 02:22:40;;;;;;;26.98;16.05;;;11.20;99.90;;;;;;5110654;28;20039;-58
2023/05/13 02:25:06;;;;;;;35.17;17.10;;;11.30;99.90;;;;;;5107637;28;20020;-60
2023/05/13 02:27:31;;;;;;;25.67;15.43;;;11.30;99.90;;;;;;5107141;28;20036;-62
2023/05/13 02:29:57;;;;;;;45.13;17.88;;;11.30;99.90;;;;;;5110005;28;20442;-62
2023/05/13 02:32:22;;;;;;;25.75;15.85;;;11.40;99.90;;;;;;5106366;28;20039;-60
2023/05/13 02:34:48;;;;;;;34.72;16.63;;;11.30;99.90;;;;;;5107928;28;20032;-61
2023/05/13 02:37:14;;;;;;;31.30;16.17;;;11.30;99.90;;;;;;5106451;28;20500;-62
2023/05/13 02:39:39;;;;;;;30.23;15.65;;;11.30;99.90;;;;;;5106040;28;20035;-61
2023/05/13 02:42:05;;;;;;;34.65;15.90;;;11.30;99.90;;;;;;5110840;28;20027;-61
2023/05/13 02:44:30;;;;;;;30.20;16.98;;;11.20;99.90;;;;;;5103376;28;20024;-61
2023/05/13 02:46:56;;;;;;;28.02;16.55;;;11.30;99.90;;;;;;5108824;28;20566;-61
2023/05/13 02:49:21;;;;;;;41.90;19.88;;;11.30;99.90;;;;;;5106185;28;20709;-60
2023/05/13 02:51:47;;;;;;;33.10;18.10;;;11.30;99.90;;;;;;5110403;28;20020;-59
2023/05/13 02:54:12;;;;;;;33.40;19.27;;;11.30;99.90;;;;;;5106628;28;20020;-61
2023/05/13 02:56:38;;;;;;;36.88;19.23;;;11.40;99.90;;;;;;5104297;28;20060;-60
2023/05/13 02:59:03;;;;;;;30.13;18.70;;;11.40;99.90;;;;;;5103372;28;20225;-60
2023/05/13 03:01:29;;;;;;;33.58;19.50;;;11.40;99.90;;;;;;5103646;28;20023;-61
2023/05/13 03:03:55;;;;;;;31.77;18.38;;;11.30;99.90;;;;;;5106549;28;20062;-62
2023/05/13 03:06:20;;;;;;;32.08;18.67;;;11.30;99.90;;;;;;5109009;28;20012;-61
2023/05/13 03:08:46;;;;;;;30.55;17.92;;;11.30;99.90;;;;;;5106158;28;20031;-62
2023/05/13 03:11:11;;;;;;;31.98;16.88;;;11.30;99.90;;;;;;5110442;28;20030;-61
2023/05/13 03:13:37;;;;;;;33.88;18.23;;;11.30;99.90;;;;;;5106814;28;20031;-61
2023/05/13 03:16:02;;;;;;;36.05;19.65;;;11.40;99.90;;;;;;5105557;28;20024;-61
2023/05/13 03:18:30;;;;;;;35.88;18.35;;;11.40;99.90;;;;;;5110078;28;20101;-61
2023/05/13 03:20:55;;;;;;;36.42;19.02;;;11.40;99.90;;;;;;5105161;28;20028;-62
2023/05/13 03:23:21;;;;;;;32.75;18.40;;;11.40;99.90;;;;;;5103417;28;20102;-61
2023/05/13 03:25:46;;;;;;;36.45;18.98;;;11.40;99.90;;;;;;5107904;28;20059;-63
2023/05/13 03:28:12;;;;;;;32.83;18.55;;;11.40;99.90;;;;;;5109404;28;20028;-60
2023/05/13 03:30:37;;;;;;;36.83;19.95;;;11.40;99.90;;;;;;5106115;28;20024;-62
2023/05/13 03:33:03;;;;;;;40.78;21.33;;;11.50;99.90;;;;;;5108713;28;20084;-62
2023/05/13 03:35:29;;;;;;;38.75;21.58;;;11.40;99.90;;;;;;5109849;28;20031;-62
2023/05/13 03:37:54;;;;;;;36.92;21.45;;;11.40;99.90;;;;;;5105663;28;20023;-61
2023/05/13 03:40:20;;;;;;;38.03;20.65;;;11.40;99.90;;;;;;5109063;28;20055;-62
2023/05/13 03:42:45;;;;;;;37.53;21.23;;;11.40;99.90;;;;;;5107180;28;20062;-60
2023/05/13 03:45:11;;;;;;;43.65;22.30;;;11.20;99.90;;;;;;5106871;28;20047;-60
2023/05/13 03:47:38;;;;;;;38.92;21.55;;;11.10;99.90;;;;;;5109663;28;20056;-62
2023/05/13 03:50:04;;;;;;;39.60;22.20;;;11.10;99.90;;;;;;5103309;28;20019;-62
2023/05/13 03:52:29;;;;;;;43.80;22.33;;;11.00;99.90;;;;;;5109949;28;20024;-62
2023/05/13 03:54:55;;;;;;;43.92;22.67;;;11.00;99.90;;;;;;5106122;28;20031;-62
2023/05/13 03:57:20;;;;;;;42.45;23.23;;;11.00;99.90;;;;;;5109538;28;20019;-61
2023/05/13 03:59:46;;;;;;;40.60;22.65;;;11.00;99.90;;;;;;5105864;28;20405;-61
2023/05/13 04:02:12;;;;;;;41.45;21.48;;;11.10;99.90;;;;;;5105692;28;20381;-61
2023/05/13 04:04:37;;;;;;;40.35;22.00;;;11.00;99.90;;;;;;5107840;28;20028;-60
2023/05/13 04:07:03;;;;;;;37.90;23.10;;;10.90;99.90;;;;;;5109185;28;20035;-59
2023/05/13 04:09:28;;;;;;;44.13;22.13;;;10.80;99.90;;;;;;5099139;28;20038;-59
2023/05/13 04:11:54;;;;;;;40.97;23.58;;;10.80;99.90;;;;;;5108393;28;20510;-62
2023/05/13 04:14:20;;;;;;;45.63;23.23;;;10.80;99.90;;;;;;5108541;28;20038;-59
2023/05/13 04:16:45;;;;;;;42.28;23.15;;;10.80;99.90;;;;;;5110920;28;20032;-62
2023/05/13 04:19:11;;;;;;;40.80;21.65;;;10.90;99.90;;;;;;5110680;28;20019;-61
2023/05/13 04:21:36;;;;;;;37.10;21.23;;;10.80;99.90;;;;;;5110161;28;20035;-61
2023/05/13 04:24:02;;;;;;;39.55;20.40;;;10.80;99.90;;;;;;5103578;28;20043;-60
2023/05/13 04:26:28;;;;;;;42.67;21.65;;;10.90;99.90;;;;;;5109892;28;20024;-60
2023/05/13 04:28:53;;;;;;;35.75;20.00;;;10.80;99.90;;;;;;5109304;28;20028;-62
2023/05/13 04:31:20;;;;;;;39.40;22.08;;;10.80;99.90;;;;;;5110707;28;20034;-62
2023/05/13 04:33:45;;;;;;;43.22;20.00;;;10.80;99.90;;;;;;5109192;28;20027;-55
2023/05/13 04:36:11;;;;;;;38.00;20.98;;;10.90;99.90;;;;;;5109043;28;20035;-61
2023/05/13 04:38:36;;;;;;;38.80;22.42;;;10.90;99.90;;;;;;5110646;28;20042;-60
2023/05/13 04:41:02;;;;;;;40.78;22.20;;;11.00;99.90;;;;;;5112328;28;20054;-61
2023/05/13 04:43:28;;;;;;;42.17;21.35;;;;;;;;;;5108470;28;20024;-59
2023/05/13 04:45:53;;;;;;;49.03;22.70;;;11.00;99.90;;;;;;5109323;28;20035;-61
2023/05/13 04:48:19;;;;;;;49.75;24.80;;;11.10;99.90;;;;;;5106502;28;20031;-61
2023/05/13 04:50:45;;;;;;;40.13;22.75;;;11.20;99.90;;;;;;5112831;28;20035;-62
2023/05/13 04:53:12;;;;;;;37.55;22.52;;;11.30;99.90;;;;;;5110945;28;20062;-62
2023/05/13 04:55:37;;;;;;;39.40;21.77;;;11.30;99.90;;;;;;5112803;28;20023;-62
2023/05/13 04:58:03;;;;;;;35.55;21.42;;;11.40;99.90;;;;;;5110559;28;20107;-61
2023/05/13 05:00:28;;;;;;;52.88;25.30;;;11.40;99.90;;;;;;5111334;28;20047;-60
2023/05/13 05:02:54;;;;;;;49.30;27.05;;;11.50;99.90;;;;;;5109351;28;20104;-60
2023/05/13 05:05:20;;;;;;;55.25;28.70;;;11.60;99.90;;;;;;5106091;28;20023;-60
2023/05/13 05:07:45;;;;;;;48.63;29.45;;;11.70;99.90;;;;;;5106039;28;20031;-61
2023/05/13 05:10:11;;;;;;;55.40;31.85;;;11.80;99.90;;;;;;5107427;28;20027;-62
2023/05/13 05:12:37;;;;;;;49.40;28.95;;;11.90;99.90;;;;;;5109324;28;20027;-61
2023/05/13 05:15:04;;;;;;;45.70;26.88;;;11.90;99.90;;;;;;5106287;28;20085;-63
2023/05/13 05:17:31;;;;;;;48.88;27.85;;;12.00;99.90;;;;;;5104128;28;20478;-62
2023/05/13 05:19:58;;;;;;;59.35;27.70;;;12.00;99.90;;;;;;5102926;28;20465;-62
2023/05/13 05:22:23;;;;;;;44.78;25.45;;;12.10;99.90;;;;;;5111316;28;20059;-62
2023/05/13 05:24:49;;;;;;;42.70;24.77;;;12.10;99.90;;;;;;5110140;28;20113;-62
2023/05/13 05:27:14;;;;;;;42.45;25.05;;;12.10;99.90;;;;;;5111250;27;20031;-61
2023/05/13 05:29:40;;;;;;;52.33;26.58;;;12.10;99.90;;;;;;5108123;27;20016;-62
2023/05/13 05:32:06;;;;;;;54.55;26.98;;;12.10;99.90;;;;;;5104774;28;20054;-61
2023/05/13 05:34:32;;;;;;;43.03;24.10;;;12.10;99.90;;;;;;5110384;28;20098;-62
2023/05/13 05:36:57;;;;;;;48.10;26.70;;;12.10;99.90;;;;;;5107358;28;20027;-61
2023/05/13 05:39:23;;;;;;;52.97;27.83;;;12.20;99.90;;;;;;5110403;28;20034;-62
2023/05/13 05:41:49;;;;;;;44.20;25.05;;;12.30;99.90;;;;;;5110230;28;20103;-61
2023/05/13 05:44:14;;;;;;;46.47;26.40;;;12.30;99.90;;;;;;5109286;28;20019;-59
2023/05/13 05:46:40;;;;;;;47.25;26.90;;;12.30;99.90;;;;;;5105734;28;20443;-61
2023/05/13 05:49:07;;;;;;;53.08;26.10;;;12.40;99.90;;;;;;5106974;28;20024;-61
2023/05/13 05:51:32;;;;;;;44.55;25.50;;;12.40;99.90;;;;;;5110661;28;20020;-59
2023/05/13 05:53:58;;;;;;;52.40;28.45;;;12.50;99.90;;;;;;5112607;28;20377;-61
2023/05/13 05:56:23;;;;;;;49.63;28.55;;;12.60;99.90;;;;;;5110702;28;20028;-60
2023/05/13 05:58:49;;;;;;;47.58;25.80;;;12.70;99.90;;;;;;5110647;28;20073;-62
2023/05/13 06:01:15;;;;;;;48.13;26.90;;;12.70;99.90;;;;;;5108330;28;20026;-62
2023/05/13 06:03:40;;;;;;;48.17;24.42;;;12.80;99.90;;;;;;5110928;28;20019;-62
2023/05/13 06:06:06;;;;;;;44.95;25.05;;;12.80;99.90;;;;;;5112068;28;20020;-61
2023/05/13 06:08:31;;;;;;;38.30;22.58;;;12.90;99.90;;;;;;5106431;28;20054;-61
2023/05/13 06:10:57;;;;;;;40.03;23.95;;;13.00;99.90;;;;;;5108790;28;20528;-62
2023/05/13 06:13:23;;;;;;;32.40;21.05;;;13.00;99.90;;;;;;5110772;28;20504;-61
2023/05/13 06:15:48;;;;;;;32.85;20.85;;;13.10;99.90;;;;;;5110094;28;20023;-61
2023/05/13 06:18:14;;;;;;;36.63;22.92;;;13.10;99.90;;;;;;5107829;28;20028;-61
2023/05/13 06:20:40;;;;;;;44.90;23.95;;;13.20;99.90;;;;;;5105428;28;20043;-59
2023/05/13 06:23:06;;;;;;;33.88;21.25;;;13.20;99.90;;;;;;5112072;28;20076;-62
2023/05/13 06:25:31;;;;;;;36.53;22.83;;;13.30;99.90;;;;;;5111291;28;20127;-63
2023/05/13 06:27:57;;;;;;;37.15;22.75;;;13.40;99.90;;;;;;5106943;28;20076;-62
2023/05/13 06:30:24;;;;;;;37.00;21.17;;;13.40;99.90;;;;;;5109795;27;20044;-61
2023/05/13 06:32:49;;;;;;;39.45;20.58;;;13.50;99.90;;;;;;5110371;28;20029;-61
2023/05/13 06:35:15;;;;;;;43.45;21.30;;;13.50;99.90;;;;;;5107175;28;20032;-60
2023/05/13 06:37:41;;;;;;;29.75;19.33;;;13.60;99.90;;;;;;5107418;28;20023;-61
2023/05/13 06:40:07;;;;;;;33.45;19.08;;;13.70;99.90;;;;;;5108093;28;20036;-62
2023/05/13 06:42:35;;;;;;;34.45;18.95;;;13.80;99.90;;;;;;5111261;28;20034;-62
2023/05/13 06:45:00;;;;;;;29.30;18.38;;;13.80;99.90;;;;;;5111216;28;20215;-61
2023/05/13 06:47:26;;;;;;;29.08;17.48;;;13.90;99.90;;;;;;5102467;28;20572;-62
2023/05/13 06:49:51;;;;;;;29.02;17.13;;;13.90;99.90;;;;;;5104021;28;20020;-60
2023/05/13 06:52:17;;;;;;;22.05;14.25;;;14.00;99.90;;;;;;5104523;28;20032;-61
2023/05/13 06:54:42;;;;;;;25.95;14.88;;;14.10;99.90;;;;;;5105040;28;20028;-61
2023/05/13 06:57:08;;;;;;;22.15;13.57;;;14.10;99.90;;;;;;5105443;28;20023;-62
2023/05/13 06:59:34;;;;;;;18.80;12.10;;;14.20;99.90;;;;;;5106216;28;20034;-62
2023/05/13 07:02:00;;;;;;;17.40;11.75;;;14.20;99.90;;;;;;5095648;28;20030;-64
2023/05/13 07:04:28;;;;;;;17.45;11.48;;;14.30;99.90;;;;;;5107710;28;20023;-63
2023/05/13 07:06:53;;;;;;;17.95;11.30;;;14.30;99.90;;;;;;5107598;28;20081;-62
2023/05/13 07:09:19;;;;;;;18.85;10.75;;;14.40;99.90;;;;;;5105260;28;20039;-62
2023/05/13 07:11:44;;;;;;;17.02;9.95;;;14.40;99.90;;;;;;5105450;28;20031;-62
2023/05/13 07:14:10;;;;;;;15.93;9.77;;;14.50;99.90;;;;;;5111265;28;20016;-62
2023/05/13 07:16:35;;;;;;;16.17;9.95;;;14.50;99.90;;;;;;5109300;28;20051;-62
2023/05/13 07:19:01;;;;;;;18.38;9.82;;;14.60;99.90;;;;;;5105980;28;20027;-62
2023/05/13 07:21:28;;;;;;;12.80;8.77;;;14.60;99.90;;;;;;5110827;28;20024;-62
2023/05/13 07:23:54;;;;;;;16.27;9.38;;;14.70;99.90;;;;;;5108252;28;20492;-63
2023/05/13 07:26:20;;;;;;;16.23;8.68;;;14.80;99.90;;;;;;5112098;27;20027;-62
2023/05/13 07:28:46;;;;;;;17.13;8.35;;;14.80;99.90;;;;;;5108556;28;20024;-63
2023/05/13 07:31:11;;;;;;;11.57;8.15;;;14.90;99.90;;;;;;5106426;28;20028;-62
2023/05/13 07:33:37;;;;;;;17.20;8.70;;;14.90;99.90;;;;;;5108875;28;20067;-61
2023/05/13 07:36:02;;;;;;;11.45;7.85;;;15.00;99.90;;;;;;5109953;28;20035;-60
2023/05/13 07:38:28;;;;;;;16.73;7.80;;;15.00;99.90;;;;;;5109197;28;20031;-63
2023/05/13 07:40:53;;;;;;;12.88;6.65;;;15.10;99.90;;;;;;5104286;28;20442;-63
2023/05/13 07:43:22;;;;;;;11.75;7.47;;;15.20;99.90;;;;;;5108326;28;20024;-62
2023/05/13 07:45:50;;;;;;;12.27;7.18;;;15.30;99.90;;;;;;5106359;28;20016;-62
2023/05/13 07:48:16;;;;;;;11.77;6.88;;;15.40;99.90;;;;;;5107620;28;20023;-62
2023/05/13 07:50:43;;;;;;;8.40;5.53;;;15.40;99.90;;;;;;5108731;27;20104;-61
2023/05/13 07:53:08;;;;;;;12.20;5.60;;;15.40;99.90;;;;;;5110289;28;20559;-63
2023/05/13 07:55:34;;;;;;;10.23;6.63;;;15.50;99.90;;;;;;5108748;28;20059;-64
2023/05/13 07:58:00;;;;;;;13.52;5.75;;;15.50;99.90;;;;;;5109210;28;20076;-63
2023/05/13 08:00:25;;;;;;;9.93;6.22;;;15.70;99.90;;;;;;5102773;28;20039;-62
2023/05/13 08:02:51;;;;;;;11.05;5.85;;;15.70;99.90;;;;;;5105183;28;20103;-62
2023/05/13 08:05:16;;;;;;;12.32;5.75;;;15.70;99.90;;;;;;5106837;28;20466;-61
2023/05/13 08:07:42;;;;;;;8.57;6.20;;;15.70;99.90;;;;;;5107374;28;20028;-63
2023/05/13 08:10:07;;;;;;;10.15;6.47;;;15.80;99.90;;;;;;5105513;28;20031;-62
2023/05/13 08:12:33;;;;;;;10.43;6.07;;;15.90;99.90;;;;;;5099864;28;20055;-60
2023/05/13 08:15:00;;;;;;;11.18;6.90;;;16.00;99.90;;;;;;5104873;28;20106;-63
2023/05/13 08:17:25;;;;;;;10.43;5.38;;;16.20;99.90;;;;;;5103049;28;20111;-62
2023/05/13 08:19:51;;;;;;;10.60;5.88;;;16.40;99.90;;;;;;5106216;28;20675;-61
2023/05/13 08:22:16;;;;;;;7.32;5.35;;;16.50;99.90;;;;;;5100408;28;20027;-55
2023/05/13 08:24:42;;;;;;;10.00;5.60;;;16.80;99.90;;;;;;5098649;28;20027;-61
2023/05/13 08:27:08;;;;;;;12.05;5.28;;;16.90;99.90;;;;;;5101534;28;20061;-60
2023/05/13 08:29:33;;;;;;;8.57;5.47;;;17.10;99.90;;;;;;5104620;28;20031;-59
2023/05/13 08:31:59;;;;;;;13.40;5.78;;;17.20;99.90;;;;;;5101508;28;20043;-53
2023/05/13 08:34:25;;;;;;;8.63;5.80;;;17.30;99.90;;;;;;5105603;28;20544;-58
2023/05/13 08:36:50;;;;;;;7.53;4.97;;;17.30;99.90;;;;;;5095182;28;20042;-61
2023/05/13 08:39:16;;;;;;;9.32;4.70;;;17.50;99.90;;;;;;5103550;28;20681;-61
2023/05/13 08:41:43;;;;;;;8.68;5.22;;;17.70;99.90;;;;;;5105735;28;20027;-60
2023/05/13 08:44:12;;;;;;;8.13;4.55;;;17.70;99.90;;;;;;5106017;28;20020;-60
2023/05/13 08:46:40;;;;;;;10.52;5.00;;;17.80;99.90;;;;;;5103856;28;20024;-56
2023/05/13 08:49:08;;;;;;;13.23;5.68;;;17.90;99.90;;;;;;5094721;28;20027;-59
2023/05/13 08:51:33;;;;;;;8.32;5.68;;;18.00;99.90;;;;;;5096211;28;21084;-60
2023/05/13 08:54:00;;;;;;;8.07;5.13;;;17.90;99.90;;;;;;5100247;28;20027;-60
2023/05/13 08:56:27;;;;;;;10.75;6.22;;;18.00;99.90;;;;;;5101530;28;20042;-58
2023/05/13 08:58:53;;;;;;;7.97;4.75;;;18.00;99.90;;;;;;5108072;28;20054;-59
2023/05/13 09:01:21;;;;;;;10.48;5.25;;;18.10;99.90;;;;;;5104625;28;20048;-59
2023/05/13 09:04:07;;;;;;;18.63;6.90;;;18.30;99.90;;;;;;5103526;28;20078;-59
2023/05/13 09:06:33;;;;;;;10.80;5.32;;;18.40;99.90;;;;;;5099463;28;20047;-56
2023/05/13 09:08:58;;;;;;;11.23;4.85;;;18.40;99.90;;;;;;5108976;28;20375;-57
2023/05/13 09:11:25;;;;;;;8.20;4.97;;;18.50;99.90;;;;;;5103693;28;20028;-52
2023/05/13 09:14:02;;;;;;;11.23;5.30;;;18.60;99.90;;;;;;5108407;28;20035;-60
2023/05/13 09:16:29;;;;;;;7.80;4.50;;;18.60;99.90;;;;;;5104998;28;20036;-60
2023/05/13 09:18:59;;;;;;;8.30;4.57;;;18.60;99.90;;;;;;5105092;27;20138;-55
2023/05/13 09:21:34;;;;;;;9.82;5.75;;;18.70;99.90;;;;;;5102752;28;20028;-56
2023/05/13 09:24:12;;;;;;;7.75;4.82;;;18.90;99.90;;;;;;5103275;28;20030;-60
2023/05/13 09:26:38;;;;;;;8.95;4.97;;;19.00;99.90;;;;;;5106750;28;20050;-61
2023/05/13 09:29:22;;;;;;;8.05;5.30;;;19.20;99.90;;;;;;5104899;28;20026;-59
2023/05/13 09:31:58;;;;;;;9.95;4.53;;;19.20;99.90;;;;;;5105921;28;20019;-60
2023/05/13 09:34:29;;;;;;;10.15;5.35;;;19.30;99.90;;;;;;5104074;28;20033;-59
2023/05/13 09:37:07;;;;;;;13.65;5.25;;;19.50;99.90;;;;;;5099427;28;20098;-59
2023/05/13 09:39:38;;;;;;;9.45;5.15;;;19.50;99.90;;;;;;5105947;27;20028;-58
2023/05/13 09:42:05;;;;;;;9.73;4.97;;;19.80;99.90;;;;;;5103479;28;20023;-60
2023/05/13 09:44:31;;;;;;;7.65;4.50;;;20.00;99.90;;;;;;5106265;28;20028;-58
2023/05/13 09:46:57;;;;;;;10.90;5.03;;;20.20;99.90;;;;;;5106814;27;20028;-59
2023/05/13 09:49:25;;;;;;;8.93;5.50;;;20.40;99.90;;;;;;5103664;27;20038;-59
2023/05/13 09:51:51;;;;;;;9.32;5.35;;;20.50;99.90;;;;;;5104126;28;20478;-56
2023/05/13 09:54:16;;;;;;;10.75;4.95;;;20.70;99.90;;;;;;5105979;28;20039;-60
2023/05/13 09:56:42;;;;;;;7.68;5.63;;;20.60;99.90;;;;;;5101664;28;20130;-61
2023/05/13 09:59:08;;;;;;;9.52;5.60;;;20.70;99.90;;;;;;5097848;28;20032;-57
2023/05/13 10:01:35;;;;;;;7.68;5.25;;;20.80;99.90;;;;;;5100377;28;20025;-57
2023/05/13 10:04:01;;;;;;;19.30;6.22;;;20.90;99.90;;;;;;5103423;28;20047;-53
2023/05/13 10:06:29;;;;;;;9.10;5.50;;;20.70;99.90;;;;;;5107986;28;20505;-56
2023/05/13 10:08:57;;;;;;;10.35;5.75;;;20.80;99.90;;;;;;5103927;28;20385;-60
2023/05/13 10:11:24;;;;;;;9.30;5.70;;;20.90;99.90;;;;;;5105342;28;20024;-58
2023/05/13 10:13:57;;;;;;;12.38;5.63;;;21.10;99.90;;;;;;5098314;28;20024;-59
2023/05/13 10:16:24;;;;;;;9.27;5.60;;;21.30;99.90;;;;;;5111027;27;20019;-56
2023/05/13 10:18:50;;;;;;;11.45;6.47;;;21.30;99.90;;;;;;5103515;28;20503;-60
2023/05/13 10:21:16;;;;;;;10.98;6.90;;;21.00;99.90;;;;;;5100441;28;20066;-56
2023/05/13 10:23:45;;;;;;;6.65;5.53;;;20.80;99.90;;;;;;5102312;28;20020;-60
2023/05/13 10:26:11;;;;;;;6.53;5.28;;;20.60;99.90;;;;;;5106331;28;20122;-58
2023/05/13 10:28:37;;;;;;;16.63;6.13;;;20.60;99.90;;;;;;5108277;28;20035;-58
2023/05/13 10:31:03;;;;;;;11.75;6.57;;;20.60;99.90;;;;;;5108580;27;20034;-56
2023/05/13 10:33:29;;;;;;;9.73;5.80;;;20.60;99.90;;;;;;5106084;27;20039;-59
2023/05/13 10:36:36;;;;;;;8.70;5.88;;;20.80;99.90;;;;;;5111150;28;20043;-59
2023/05/13 10:39:23;;;;;;;7.55;5.70;;;21.00;99.90;;;;;;5100814;28;20392;-54
2023/05/13 10:42:35;;;;;;;14.95;6.32;;;20.90;99.90;;;;;;5098330;28;20028;-61
2023/05/13 10:45:01;;;;;;;14.45;6.72;;;20.60;99.90;;;;;;5102397;28;20039;-59
2023/05/13 10:47:33;;;;;;;13.60;6.45;;;20.40;99.90;;;;;;5101242;28;20076;-60
2023/05/13 10:50:04;;;;;;;15.95;6.45;;;20.40;99.90;;;;;;5101827;28;20059;-60
2023/05/13 10:52:45;;;;;;;12.88;6.90;;;20.40;99.90;;;;;;5103292;28;20535;-60
2023/05/13 10:55:17;;;;;;;9.60;5.78;;;20.40;99.90;;;;;;5104091;28;20126;-59
2023/05/13 10:58:09;;;;;;;11.70;6.97;;;20.40;99.90;;;;;;5103380;28;20024;-58
2023/05/13 11:00:36;;;;;;;12.00;5.90;;;20.30;99.90;;;;;;5101193;28;20042;-57
2023/05/13 11:03:13;;;;;;;9.68;6.43;;;20.20;99.90;;;;;;5103149;28;20032;-58
2023/05/13 11:05:58;;;;;;;13.07;6.47;;;20.10;99.90;;;;;;5108310;28;20496;-57
2023/05/13 11:08:42;;;;;;;14.02;4.95;;;20.00;99.90;;;;;;5105098;28;20024;-58
2023/05/13 11:11:19;;;;;;;5.50;3.30;;;19.90;99.90;;;;;;5104215;28;20507;-59
2023/05/13 11:13:45;;;;;;;4.72;3.67;;;19.90;99.90;;;;;;5105663;28;20084;-59
2023/05/13 11:16:12;;;;;;;8.93;3.80;;;19.80;99.90;;;;;;5104990;28;20031;-58
2023/05/13 11:18:38;;;;;;;9.35;4.30;;;19.90;99.90;;;;;;5107302;28;20035;-60
2023/05/13 11:21:06;;;;;;;5.03;3.72;;;19.70;99.90;;;;;;5106716;27;20036;-59
2023/05/13 11:23:55;;;;;;;6.70;4.10;;;19.90;99.90;;;;;;5110168;28;20049;-60
2023/05/13 11:26:21;;;;;;;6.13;4.07;;;19.90;99.90;;;;;;5104262;28;20023;-60
2023/05/13 11:29:04;;;;;;;7.07;4.65;;;19.80;99.90;;;;;;5103205;28;20575;-59
2023/05/13 11:31:47;;;;;;;9.85;4.88;;;19.70;99.90;;;;;;5101852;28;20023;-59
2023/05/13 11:34:17;;;;;;;11.45;3.42;;;19.40;99.90;;;;;;5106212;28;20406;-58
2023/05/13 11:36:48;;;;;;;4.03;3.08;;;18.90;99.90;;;;;;5106846;28;20384;-58
2023/05/13 11:39:18;;;;;;;10.65;2.95;;;18.60;99.90;;;;;;5099979;28;20039;-55
2023/05/13 11:41:48;;;;;;;5.32;2.42;;;17.90;99.90;;;;;;5102894;28;20024;-59
2023/05/13 11:44:19;;;;;;;6.07;2.70;;;17.30;99.90;;;;;;5102337;28;20048;-54
2023/05/13 11:46:59;;;;;;;18.55;2.80;;;16.80;99.90;;;;;;5103085;28;20016;-57
2023/05/13 11:49:32;;;;;;;12.15;3.33;;;16.30;99.90;;;;;;5101918;28;20488;-57
2023/05/13 11:52:06;;;;;;;10.30;2.92;;;15.40;99.90;;;;;;5101378;28;20038;-58
2023/05/13 11:54:39;;;;;;;;;;;15.10;99.90;;;;;;5098409;28;20027;-56
2023/05/13 11:57:22;;;;;;;9.75;3.65;;;14.80;99.90;;;;;;5102549;28;19911;-59
2023/05/13 11:59:53;;;;;;;6.40;3.65;;;14.40;99.90;;;;;;5103317;28;20027;-58
2023/05/13 12:02:25;;;;;;;15.43;4.47;;;14.20;99.90;;;;;;5103209;28;20027;-58
2023/05/13 12:04:52;;;;;;;6.47;4.22;;;14.20;99.90;;;;;;5107257;28;20047;-60
2023/05/13 12:07:24;;;;;;;10.35;4.65;;;14.10;99.90;;;;;;5105526;28;20024;-60
2023/05/13 12:09:51;;;;;;;6.05;4.45;;;14.10;99.90;;;;;;5103041;28;20602;-58
2023/05/13 12:12:18;;;;;;;8.55;4.25;;;14.20;99.90;;;;;;5102209;28;20102;-60
2023/05/13 12:14:45;;;;;;;9.68;4.93;;;14.20;99.90;;;;;;5107436;28;20031;-61
2023/05/13 12:17:14;;;;;;;11.45;5.88;;;14.20;99.90;;;;;;5104066;28;20505;-58
2023/05/13 12:19:58;;;;;;;9.35;5.88;;;14.20;99.90;;;;;;5099226;28;20064;-58
2023/05/13 12:22:24;;;;;;;9.30;5.70;;;14.10;99.90;;;;;;5107586;28;20055;-56
2023/05/13 12:24:50;;;;;;;12.90;5.97;;;14.10;99.90;;;;;;5103509;28;20273;-58
2023/05/13 12:27:16;;;;;;;14.95;7.10;;;14.10;99.90;;;;;;5101243;28;20078;-56
2023/05/13 12:29:42;;;;;;;12.63;6.43;;;14.20;99.90;;;;;;5101945;28;20505;-58
2023/05/13 12:32:10;;;;;;;11.77;6.47;;;14.50;99.90;;;;;;5102041;28;20039;-59
2023/05/13 12:34:37;;;;;;;13.15;7.03;;;14.80;99.90;;;;;;5108329;28;20156;-60
2023/05/13 12:37:12;;;;;;;12.27;6.78;;;14.90;99.90;;;;;;5107246;28;20721;-56